createdAt,value
2022-12-01T00:11:15.154Z,76.40
2022-12-01T00:21:59.496Z,75.40
2022-12-01T00:25:39.043Z,74.10
2022-12-01T00:30:52.212Z,74.20
2022-12-01T00:34:00.505Z,71.70
2022-12-01T00:37:18.164Z,68.20
2022-12-01T00:49:13.987Z,64.10
2022-12-01T00:53:28.484Z,59.90
2022-12-01T01:00:33.755Z,53.20
2022-12-01T01:03:47.611Z,63.60
2022-12-01T01:07:47.710Z,61.80
2022-12-01T01:10:47.005Z,66.80
2022-12-01T01:13:32.066Z,79.60
2022-12-01T01:16:27.610Z,83.20
2022-12-01T01:31:32.118Z,77.30
2022-12-01T01:41:03.968Z,96.60
2022-12-01T01:42:54.821Z,93.90
2022-12-01T01:45:23.838Z,76.90
2022-12-01T01:48:32.518Z,76.40
2022-12-01T01:51:27.683Z,68.10
2022-12-01T01:55:34.498Z,66.40
2022-12-01T01:57:44.075Z,58.60
2022-12-01T02:00:28.222Z,57.50
2022-12-01T02:04:06.973Z,60.20
2022-12-01T02:10:54.707Z,61.50
2022-12-01T02:15:02.449Z,62.40
2022-12-01T02:17:26.384Z,57.20
2022-12-01T02:21:10.037Z,56.70
2022-12-01T02:24:06.930Z,57.90
2022-12-01T02:26:45.815Z,48.50
2022-12-01T02:29:50.885Z,48.30
2022-12-01T02:32:42.176Z,53.40
2022-12-01T02:35:39.888Z,54.70
2022-12-01T02:38:29.714Z,47.90
2022-12-01T02:41:54.047Z,62.70
2022-12-01T02:44:55.538Z,70.10
2022-12-01T02:49:36.703Z,60.60
2022-12-01T02:51:58.284Z,56.30
2022-12-01T02:56:13.338Z,50.20
2022-12-01T02:59:08.740Z,44.00
2022-12-01T03:06:10.500Z,38.10
2022-12-01T03:09:18.849Z,31.80
2022-12-01T03:12:49.576Z,38.60
2022-12-01T03:21:50.388Z,35.90
2022-12-01T03:30:26.733Z,37.90
2022-12-01T03:33:46.306Z,30.30
2022-12-01T03:37:13.436Z,32.60
2022-12-01T03:40:36.800Z,33.70
2022-12-01T03:43:40.647Z,31.60
2022-12-01T03:47:25.241Z,30.40
2022-12-01T04:03:11.186Z,29.50
2022-12-01T04:07:03.538Z,27.40
2022-12-01T04:14:49.521Z,27.60
2022-12-01T04:17:32.799Z,28.80
2022-12-01T04:20:30.323Z,29.10
2022-12-01T04:23:56.082Z,29.80
2022-12-01T04:27:24.008Z,34.60
2022-12-01T04:45:11.385Z,38.30
2022-12-01T04:47:54.721Z,37.20
2022-12-01T04:50:50.366Z,44.60
2022-12-01T04:57:52.009Z,41.80
2022-12-01T05:04:30.661Z,32.50
2022-12-01T05:06:19.473Z,38.30
2022-12-01T05:11:17.470Z,27.20
2022-12-01T05:15:12.097Z,32.40
2022-12-01T05:18:14.393Z,23.10
2022-12-01T05:21:28.845Z,28.30
2022-12-01T05:24:51.090Z,31.80
2022-12-01T05:28:06.053Z,29.10
2022-12-01T05:30:46.215Z,32.90
2022-12-01T05:33:27.513Z,27.90
2022-12-01T05:41:08.782Z,28.40
2022-12-01T05:48:11.731Z,31.20
2022-12-01T05:52:01.893Z,28.30
2022-12-01T06:08:06.534Z,39.10
2022-12-01T06:16:07.255Z,39.70
2022-12-01T06:19:38.057Z,42.80
2022-12-01T06:27:09.737Z,39.50
2022-12-01T07:15:33.477Z,48.60
2022-12-01T08:44:55.037Z,65.50
2022-12-01T09:12:51.350Z,137.20
2022-12-01T09:59:49.611Z,72.60
2022-12-01T10:08:38.864Z,56.00
2022-12-01T10:12:08.321Z,68.60
2022-12-01T10:22:48.677Z,48.50
2022-12-01T10:25:22.308Z,50.30
2022-12-01T10:28:10.657Z,56.90
2022-12-01T10:30:48.568Z,42.70
2022-12-01T10:33:28.281Z,44.50
2022-12-01T10:40:56.831Z,38.90
2022-12-01T10:44:06.860Z,47.40
2022-12-01T10:51:25.266Z,43.60
2022-12-01T10:54:07.161Z,39.00
2022-12-01T10:56:38.686Z,38.60
2022-12-01T10:59:24.338Z,37.40
2022-12-01T11:01:54.650Z,44.70
2022-12-01T11:05:08.329Z,40.70
2022-12-01T11:07:46.772Z,40.10
2022-12-01T11:10:25.377Z,41.50
2022-12-01T11:12:56.543Z,41.90
2022-12-01T11:15:35.858Z,38.20
2022-12-01T11:18:42.454Z,37.80
2022-12-01T11:29:38.857Z,32.60
2022-12-01T11:57:53.208Z,32.30
2022-12-01T12:19:14.372Z,33.90
2022-12-01T12:22:02.005Z,33.90
2022-12-01T12:24:47.175Z,37.90
2022-12-01T12:27:47.804Z,37.80
2022-12-01T12:31:11.435Z,37.30
2022-12-01T12:34:29.187Z,38.70
2022-12-01T12:37:40.530Z,34.50
2022-12-01T12:40:27.320Z,31.20
2022-12-01T12:43:26.973Z,37.70
2022-12-01T12:46:41.002Z,42.70
2022-12-01T12:49:24.858Z,45.40
2022-12-01T12:52:08.395Z,36.40
2022-12-01T12:55:12.979Z,38.80
2022-12-01T12:58:17.404Z,40.20
2022-12-01T13:01:20.543Z,35.70
2022-12-01T13:03:53.808Z,36.10
2022-12-01T13:06:53.112Z,37.60
2022-12-01T13:09:47.218Z,37.00
2022-12-01T13:12:36.423Z,32.30
2022-12-01T13:15:17.699Z,37.80
2022-12-01T13:17:56.838Z,35.30
2022-12-01T13:20:29.392Z,33.50
2022-12-01T13:23:26.454Z,35.70
2022-12-01T13:26:24.982Z,36.40
2022-12-01T13:29:55.290Z,33.90
2022-12-01T13:32:40.232Z,31.10
2022-12-01T13:36:38.280Z,41.80
2022-12-01T13:39:48.363Z,32.90
2022-12-01T13:42:27.398Z,34.70
2022-12-01T13:45:12.133Z,37.00
2022-12-01T13:48:28.534Z,33.00
2022-12-01T13:51:17.368Z,36.60
2022-12-01T13:58:58.034Z,46.50
2022-12-01T14:02:41.971Z,48.10
2022-12-01T14:17:27.749Z,50.40
2022-12-01T14:20:21.087Z,40.70
2022-12-01T14:23:41.060Z,43.40
2022-12-01T14:27:05.666Z,43.20
2022-12-01T14:30:23.025Z,41.40
2022-12-01T14:33:33.914Z,38.70
2022-12-01T14:36:01.155Z,39.70
2022-12-01T14:38:28.555Z,48.20
2022-12-01T14:40:56.126Z,44.30
2022-12-01T14:43:46.980Z,49.00
2022-12-01T14:46:21.560Z,46.60
2022-12-01T14:48:49.970Z,47.00
2022-12-01T14:51:31.249Z,51.30
2022-12-01T14:54:01.856Z,53.40
2022-12-01T14:56:33.096Z,55.30
2022-12-01T14:59:13.155Z,55.50
2022-12-01T15:01:50.375Z,44.00
2022-12-01T15:04:18.021Z,49.00
2022-12-01T15:06:58.101Z,43.90
2022-12-01T15:09:34.893Z,42.10
2022-12-01T15:12:06.874Z,42.60
2022-12-01T15:14:44.674Z,44.90
2022-12-01T15:17:37.341Z,45.90
2022-12-01T15:20:34.059Z,59.60
2022-12-01T15:23:12.518Z,57.10
2022-12-01T15:26:19.154Z,56.10
2022-12-01T15:28:48.481Z,47.60
2022-12-01T15:31:18.193Z,44.60
2022-12-01T15:33:53.438Z,49.70
2022-12-01T15:36:53.918Z,61.40
2022-12-01T15:39:53.585Z,112.10
2022-12-01T15:43:06.478Z,132.40
2022-12-01T15:45:53.813Z,104.50
2022-12-01T15:48:39.132Z,95.70
2022-12-01T15:51:16.903Z,75.30
2022-12-01T15:53:55.637Z,78.00
2022-12-01T15:56:30.084Z,70.00
2022-12-01T15:59:24.129Z,85.70
2022-12-01T16:01:51.278Z,68.50
2022-12-01T16:04:25.043Z,74.80
2022-12-01T16:07:20.166Z,71.30
2022-12-01T16:10:00.266Z,73.40
2022-12-01T16:12:32.380Z,82.90
2022-12-01T16:15:24.188Z,106.80
2022-12-01T16:17:53.323Z,117.10
2022-12-01T16:20:32.550Z,117.50
2022-12-01T16:23:35.593Z,116.30
2022-12-01T16:26:39.264Z,97.10
2022-12-01T16:37:26.857Z,110.70
2022-12-01T16:46:13.795Z,112.90
2022-12-01T16:49:33.740Z,121.10
2022-12-01T16:52:48.351Z,165.70
2022-12-01T16:55:55.069Z,125.80
2022-12-01T16:58:49.919Z,129.90
2022-12-01T17:02:02.501Z,177.00
2022-12-01T17:05:13.338Z,221.10
2022-12-01T17:07:44.275Z,170.50
2022-12-01T17:10:11.731Z,173.10
2022-12-01T17:12:40.762Z,180.60
2022-12-01T17:17:07.471Z,199.40
2022-12-01T17:20:11.162Z,216.10
2022-12-01T17:23:09.177Z,197.30
2022-12-01T17:25:41.300Z,177.90
2022-12-01T17:28:18.476Z,164.30
2022-12-01T17:31:04.733Z,132.30
2022-12-01T17:33:47.038Z,129.40
2022-12-01T17:36:23.932Z,115.20
2022-12-01T17:39:03.683Z,112.70
2022-12-01T17:41:35.010Z,128.10
2022-12-01T17:44:05.392Z,129.80
2022-12-01T17:49:00.809Z,165.30
2022-12-01T17:51:27.713Z,157.10
2022-12-01T17:53:54.663Z,196.40
2022-12-01T17:56:21.661Z,142.40
2022-12-01T17:58:49.887Z,167.20
2022-12-01T18:01:20.311Z,156.90
2022-12-01T18:03:49.654Z,178.30
2022-12-01T18:06:19.706Z,182.70
2022-12-01T18:08:59.756Z,186.50
2022-12-01T18:11:43.860Z,174.50
2022-12-01T18:15:37.145Z,165.20
2022-12-01T18:18:06.325Z,146.10
2022-12-01T18:25:16.996Z,152.40
2022-12-01T18:27:57.728Z,158.40
2022-12-01T18:44:56.586Z,205.10
2022-12-01T18:47:23.216Z,218.10
2022-12-01T18:49:58.866Z,189.20
2022-12-01T18:52:35.985Z,186.00
2022-12-01T18:55:02.661Z,195.50
2022-12-01T18:57:29.826Z,175.10
2022-12-01T18:59:56.449Z,177.30
2022-12-01T19:02:23.223Z,188.20
2022-12-01T19:04:50.257Z,188.60
2022-12-01T19:07:17.537Z,219.80
2022-12-01T19:09:44.200Z,210.70
2022-12-01T19:12:10.990Z,204.20
2022-12-01T19:14:38.731Z,211.80
2022-12-01T19:17:05.729Z,212.60
2022-12-01T19:19:37.140Z,205.20
2022-12-01T19:22:04.356Z,195.40
2022-12-01T19:24:56.792Z,171.00
2022-12-01T19:27:23.892Z,156.80
2022-12-01T19:29:54.466Z,175.20
2022-12-01T19:32:22.704Z,152.60
2022-12-01T19:34:49.977Z,155.20
2022-12-01T19:37:16.963Z,164.80
2022-12-01T19:39:44.078Z,157.40
2022-12-01T19:42:16.216Z,164.40
2022-12-01T19:44:45.393Z,174.70
2022-12-01T19:47:39.254Z,206.70
2022-12-01T19:50:06.764Z,162.20
2022-12-01T19:52:35.555Z,150.50
2022-12-01T19:55:05.239Z,150.60
2022-12-01T19:57:51.939Z,149.60
2022-12-01T20:00:25.261Z,161.40
2022-12-01T20:02:54.845Z,154.00
2022-12-01T20:05:21.971Z,153.50
2022-12-01T20:07:53.274Z,152.60
2022-12-01T20:10:20.168Z,142.00
2022-12-01T20:12:47.109Z,140.40
2022-12-01T20:15:14.439Z,134.70
2022-12-01T20:17:41.845Z,128.00
2022-12-01T20:20:10.028Z,140.30
2022-12-01T20:22:37.050Z,146.90
2022-12-01T20:25:05.367Z,125.90
2022-12-01T20:27:32.447Z,137.60
2022-12-01T20:29:59.404Z,148.20
2022-12-01T20:32:26.852Z,147.50
2022-12-01T20:34:54.004Z,157.20
2022-12-01T20:37:28.327Z,143.70
2022-12-01T20:40:02.605Z,162.80
2022-12-01T20:42:43.485Z,155.90
2022-12-01T20:45:49.706Z,166.40
2022-12-01T20:48:17.494Z,161.10
2022-12-01T20:50:45.573Z,162.80
2022-12-01T20:53:12.253Z,152.60
2022-12-01T20:56:08.270Z,143.60
2022-12-01T20:59:03.946Z,160.20
2022-12-01T21:02:48.190Z,159.10
2022-12-01T21:05:18.658Z,176.40
2022-12-01T21:07:53.165Z,203.00
2022-12-01T21:10:32.852Z,196.00
2022-12-01T21:13:41.044Z,184.90
2022-12-01T21:16:26.135Z,187.70
2022-12-01T21:19:23.893Z,177.70
2022-12-01T21:22:16.261Z,165.50
2022-12-01T21:25:22.871Z,190.90
2022-12-01T21:28:14.579Z,187.00
2022-12-01T21:30:48.625Z,189.40
2022-12-01T21:33:32.101Z,191.00
2022-12-01T21:36:07.010Z,195.80
2022-12-01T21:38:33.900Z,184.90
2022-12-01T21:41:00.996Z,186.50
2022-12-01T21:43:32.613Z,195.30
2022-12-01T21:46:15.851Z,182.70
2022-12-01T21:51:24.728Z,242.50
2022-12-01T21:53:55.261Z,194.60
2022-12-01T21:56:28.315Z,184.20
2022-12-01T21:58:58.523Z,175.90
2022-12-01T22:06:29.897Z,157.10
2022-12-01T22:10:12.824Z,159.10
2022-12-01T22:12:43.441Z,119.70
2022-12-01T22:15:35.503Z,124.40
2022-12-01T22:18:16.787Z,113.70
2022-12-01T22:21:41.015Z,100.50
2022-12-01T22:28:57.496Z,84.20
2022-12-01T22:31:28.709Z,107.90
2022-12-01T22:34:03.227Z,109.30
2022-12-01T22:36:32.786Z,149.70
2022-12-01T22:39:00.698Z,175.90
2022-12-01T22:41:31.569Z,185.10
2022-12-01T22:44:02.058Z,151.70
2022-12-01T22:46:35.727Z,155.40
2022-12-01T22:49:21.642Z,162.10
2022-12-01T22:52:01.480Z,133.30
2022-12-01T22:54:34.245Z,133.40
2022-12-01T22:57:07.156Z,128.20
2022-12-01T22:59:39.980Z,123.10
2022-12-01T23:02:21.185Z,124.70
2022-12-01T23:05:00.188Z,129.80
2022-12-01T23:07:55.088Z,145.50
2022-12-01T23:10:32.473Z,139.90
2022-12-01T23:13:14.018Z,145.60
2022-12-01T23:15:45.561Z,135.50
2022-12-01T23:18:15.595Z,133.60
2022-12-01T23:20:44.301Z,127.60
2022-12-01T23:23:19.458Z,128.30
2022-12-01T23:25:48.972Z,137.00
2022-12-01T23:28:19.896Z,151.10
2022-12-01T23:30:48.887Z,145.00
2022-12-01T23:33:20.572Z,132.60
2022-12-01T23:36:06.022Z,117.40
2022-12-01T23:38:38.040Z,120.00
2022-12-01T23:41:22.618Z,109.40
2022-12-01T23:43:54.807Z,105.40
2022-12-01T23:46:24.574Z,105.80
2022-12-01T23:49:20.312Z,111.60
2022-12-01T23:51:53.453Z,107.30
2022-12-01T23:54:37.475Z,100.40
2022-12-01T23:57:16.005Z,105.50
2022-12-01T23:59:44.191Z,100.20
